createdAt,value
2023-03-26T00:01:21.386Z,7.30
2023-03-26T00:03:53.957Z,7.27
2023-03-26T00:06:27.698Z,7.02
2023-03-26T00:08:57.266Z,7.12
2023-03-26T00:11:26.593Z,7.15
2023-03-26T00:13:57.062Z,7.07
2023-03-26T00:16:26.355Z,6.97
2023-03-26T00:18:53.585Z,7.18
2023-03-26T00:21:22.470Z,7.26
2023-03-26T00:23:49.455Z,6.88
2023-03-26T00:26:17.550Z,7.10
2023-03-26T00:28:50.965Z,7.15
2023-03-26T00:31:18.391Z,7.26
2023-03-26T00:33:45.269Z,7.30
2023-03-26T00:36:15.158Z,7.29
2023-03-26T00:38:42.340Z,7.32
2023-03-26T00:41:22.713Z,7.34
2023-03-26T00:43:53.436Z,7.28
2023-03-26T00:46:20.386Z,7.24
2023-03-26T00:48:47.387Z,7.20
2023-03-26T00:51:16.306Z,7.29
2023-03-26T00:53:45.359Z,7.24
2023-03-26T00:56:12.551Z,7.28
2023-03-26T00:58:39.876Z,7.30
2023-03-26T01:01:15.581Z,7.06
2023-03-26T01:03:56.655Z,7.01
2023-03-26T01:06:32.910Z,6.99
2023-03-26T01:09:07.064Z,7.12
2023-03-26T01:11:35.242Z,7.17
2023-03-26T01:14:09.778Z,7.23
2023-03-26T01:16:50.169Z,7.25
2023-03-26T01:19:45.261Z,7.16
2023-03-26T01:22:21.041Z,7.12
2023-03-26T01:24:53.520Z,6.81
2023-03-26T01:27:26.458Z,6.93
2023-03-26T01:29:56.476Z,6.90
2023-03-26T01:32:47.737Z,6.92
2023-03-26T01:35:37.632Z,7.02
2023-03-26T01:38:23.386Z,7.09
2023-03-26T01:41:04.691Z,7.13
2023-03-26T01:43:38.885Z,7.15
2023-03-26T01:46:08.345Z,7.12
2023-03-26T01:48:38.626Z,7.14
2023-03-26T01:51:06.487Z,7.16
2023-03-26T01:53:37.360Z,7.17
2023-03-26T01:56:41.557Z,7.16
2023-03-26T01:59:32.914Z,7.18
2023-03-26T02:02:17.520Z,7.20
2023-03-26T02:04:54.436Z,7.02
2023-03-26T02:07:44.728Z,7.10
2023-03-26T02:10:16.436Z,7.15
2023-03-26T02:12:44.539Z,7.18
2023-03-26T02:15:12.331Z,7.21
2023-03-26T02:17:42.668Z,7.22
2023-03-26T02:20:12.375Z,7.24
2023-03-26T02:22:45.845Z,7.24
2023-03-26T02:25:16.166Z,7.25
2023-03-26T02:27:43.410Z,7.25
2023-03-26T02:30:13.858Z,7.26
2023-03-26T02:32:40.696Z,7.27
2023-03-26T02:35:07.793Z,7.27
2023-03-26T02:37:34.494Z,7.29
2023-03-26T02:40:01.202Z,7.31
2023-03-26T02:42:28.065Z,7.32
2023-03-26T02:44:54.771Z,7.35
2023-03-26T02:47:21.452Z,7.35
2023-03-26T02:49:48.164Z,7.34
2023-03-26T02:52:17.256Z,7.35
2023-03-26T02:54:44.095Z,7.36
2023-03-26T02:57:11.256Z,7.35
2023-03-26T02:59:38.380Z,7.37
2023-03-26T03:02:05.475Z,7.38
2023-03-26T03:04:32.261Z,7.35
2023-03-26T03:06:59.904Z,7.38
2023-03-26T03:09:26.690Z,7.39
2023-03-26T03:11:53.321Z,7.39
2023-03-26T03:14:20.653Z,7.40
2023-03-26T03:16:47.431Z,7.42
2023-03-26T03:19:14.343Z,7.43
2023-03-26T03:21:41.945Z,7.43
2023-03-26T03:24:09.369Z,7.44
2023-03-26T03:26:36.584Z,7.45
2023-03-26T03:29:03.580Z,7.46
2023-03-26T03:31:30.377Z,7.44
2023-03-26T03:33:57.039Z,7.45
2023-03-26T03:36:24.139Z,7.47
2023-03-26T03:38:51.318Z,7.48
2023-03-26T03:41:18.790Z,7.49
2023-03-26T03:43:46.283Z,7.50
2023-03-26T03:46:13.067Z,7.48
2023-03-26T03:48:39.836Z,7.49
2023-03-26T03:51:06.915Z,7.51
2023-03-26T03:53:37.149Z,7.51
2023-03-26T03:56:10.241Z,7.51
2023-03-26T03:58:37.389Z,7.51
2023-03-26T04:01:04.698Z,7.51
2023-03-26T04:03:38.842Z,7.51
2023-03-26T04:06:07.059Z,7.53
2023-03-26T04:08:34.875Z,7.52
2023-03-26T04:11:01.904Z,7.53
2023-03-26T04:13:28.924Z,7.51
2023-03-26T04:15:56.416Z,7.50
2023-03-26T04:18:23.474Z,7.52
2023-03-26T04:20:50.864Z,7.51
2023-03-26T04:23:18.864Z,7.53
2023-03-26T04:25:49.498Z,7.51
2023-03-26T04:28:28.844Z,7.48
2023-03-26T04:30:57.258Z,7.50
2023-03-26T04:33:25.066Z,7.49
2023-03-26T04:35:52.015Z,7.49
2023-03-26T04:38:18.845Z,7.50
2023-03-26T04:40:48.487Z,7.49
2023-03-26T04:43:18.083Z,7.48
2023-03-26T04:45:48.028Z,7.47
2023-03-26T04:48:14.812Z,7.47
2023-03-26T04:50:43.782Z,7.48
2023-03-26T04:53:21.560Z,7.47
2023-03-26T04:56:20.675Z,7.48
2023-03-26T04:58:48.282Z,7.46
2023-03-26T05:01:16.720Z,7.44
2023-03-26T05:03:45.783Z,7.45
2023-03-26T05:06:13.916Z,7.45
2023-03-26T05:08:41.885Z,7.44
2023-03-26T05:11:11.738Z,7.45
2023-03-26T05:13:39.557Z,7.44
2023-03-26T05:16:06.763Z,7.44
2023-03-26T05:18:33.608Z,7.44
2023-03-26T05:21:00.332Z,7.43
2023-03-26T05:23:27.145Z,7.43
2023-03-26T05:25:54.074Z,7.41
2023-03-26T05:28:24.348Z,7.43
2023-03-26T05:30:54.623Z,7.43
2023-03-26T05:33:22.627Z,7.43
2023-03-26T05:36:00.254Z,7.43
2023-03-26T05:38:29.132Z,7.43
2023-03-26T05:41:07.567Z,7.44
2023-03-26T05:43:34.624Z,7.45
2023-03-26T05:46:01.901Z,7.45
2023-03-26T05:48:28.836Z,7.45
2023-03-26T05:50:57.334Z,7.45
2023-03-26T05:53:27.080Z,7.46
2023-03-26T05:55:57.980Z,7.48
2023-03-26T05:58:26.422Z,7.47
2023-03-26T06:01:05.876Z,7.48
2023-03-26T06:03:33.726Z,7.45
2023-03-26T06:06:00.525Z,7.45
2023-03-26T06:08:27.475Z,7.49
2023-03-26T06:11:02.819Z,7.49
2023-03-26T06:13:30.016Z,7.51
2023-03-26T06:15:58.308Z,7.51
2023-03-26T06:18:26.541Z,7.52
2023-03-26T06:20:53.663Z,7.51
2023-03-26T06:23:20.837Z,7.52
2023-03-26T06:25:47.932Z,7.53
2023-03-26T06:28:15.495Z,7.55
2023-03-26T06:30:42.758Z,7.52
2023-03-26T06:33:10.139Z,7.52
2023-03-26T06:35:37.209Z,7.54
2023-03-26T06:38:04.764Z,7.52
2023-03-26T06:40:32.848Z,7.54
2023-03-26T06:43:08.873Z,7.53
2023-03-26T06:45:37.634Z,7.54
2023-03-26T06:48:05.071Z,7.55
2023-03-26T06:50:32.907Z,7.57
2023-03-26T06:52:59.770Z,7.56
2023-03-26T06:55:27.302Z,7.58
2023-03-26T06:57:55.997Z,7.60
2023-03-26T07:00:22.987Z,7.61
2023-03-26T07:02:50.085Z,7.58
2023-03-26T07:05:17.101Z,7.58
2023-03-26T07:07:46.137Z,7.62
2023-03-26T07:10:14.003Z,7.60
2023-03-26T07:12:42.493Z,7.65
2023-03-26T07:15:10.529Z,7.64
2023-03-26T07:17:37.594Z,7.66
2023-03-26T07:20:06.600Z,7.67
2023-03-26T07:22:33.941Z,7.69
2023-03-26T07:25:01.237Z,7.71
2023-03-26T07:27:55.229Z,7.74
2023-03-26T07:30:29.015Z,7.75
2023-03-26T07:33:24.902Z,7.77
2023-03-26T07:36:00.385Z,7.79
2023-03-26T07:38:48.863Z,7.81
2023-03-26T07:41:39.054Z,7.82
2023-03-26T07:44:20.922Z,7.82
2023-03-26T07:46:49.231Z,7.83
2023-03-26T07:49:17.958Z,7.85
2023-03-26T07:51:45.008Z,7.86
2023-03-26T07:54:11.956Z,7.89
2023-03-26T07:56:53.334Z,7.92
2023-03-26T07:59:25.809Z,7.91
2023-03-26T08:02:17.469Z,7.93
2023-03-26T08:05:02.347Z,7.94
2023-03-26T08:07:34.147Z,7.96
2023-03-26T08:10:22.682Z,7.98
2023-03-26T08:13:16.835Z,7.95
2023-03-26T08:15:53.548Z,7.97
2023-03-26T08:18:41.480Z,7.98
2023-03-26T08:21:17.392Z,7.99
2023-03-26T08:24:32.015Z,8.00
2023-03-26T08:27:16.766Z,7.99
2023-03-26T08:30:20.744Z,7.89
2023-03-26T08:32:56.296Z,7.97
2023-03-26T08:35:24.267Z,8.02
2023-03-26T08:37:51.965Z,8.05
2023-03-26T08:40:43.746Z,7.95
2023-03-26T08:43:22.353Z,8.02
2023-03-26T08:45:57.872Z,8.08
2023-03-26T08:48:46.272Z,8.09
2023-03-26T08:51:13.035Z,8.12
2023-03-26T08:53:45.706Z,8.06
2023-03-26T08:56:20.971Z,8.10
2023-03-26T08:58:56.921Z,8.02
2023-03-26T09:02:05.859Z,8.06
2023-03-26T09:05:09.436Z,8.03
2023-03-26T09:07:41.965Z,8.09
2023-03-26T09:10:34.993Z,8.09
2023-03-26T09:13:17.244Z,8.10
2023-03-26T09:15:43.968Z,8.10
2023-03-26T09:18:53.700Z,8.04
2023-03-26T09:21:57.960Z,8.10
2023-03-26T09:24:35.594Z,8.01
2023-03-26T09:27:16.181Z,8.09
2023-03-26T09:30:10.489Z,8.06
2023-03-26T09:32:56.462Z,8.13
2023-03-26T09:35:29.143Z,8.01
2023-03-26T09:38:40.642Z,8.06
2023-03-26T09:41:17.520Z,8.09
2023-03-26T09:44:05.418Z,8.03
2023-03-26T09:46:45.590Z,8.03
2023-03-26T09:49:44.807Z,8.17
2023-03-26T09:52:44.422Z,8.23
2023-03-26T09:55:26.381Z,8.13
2023-03-26T09:58:30.466Z,8.19
2023-03-26T10:01:01.083Z,8.21
2023-03-26T10:03:31.275Z,8.11
2023-03-26T10:06:07.267Z,8.16
2023-03-26T10:08:58.598Z,8.01
2023-03-26T10:11:37.531Z,7.92
2023-03-26T10:14:15.753Z,7.87
2023-03-26T10:17:00.175Z,7.66
2023-03-26T10:19:29.859Z,7.92
2023-03-26T10:22:15.629Z,8.00
2023-03-26T10:25:06.878Z,7.88
2023-03-26T10:27:58.182Z,7.92
2023-03-26T10:31:03.654Z,7.98
2023-03-26T10:34:28.123Z,7.99
2023-03-26T10:37:04.916Z,8.02
2023-03-26T10:39:59.310Z,8.03
2023-03-26T10:42:41.269Z,7.99
2023-03-26T10:45:26.497Z,8.03
2023-03-26T10:47:58.829Z,7.91
2023-03-26T10:50:51.367Z,8.01
2023-03-26T10:53:20.950Z,7.87
2023-03-26T10:55:53.713Z,7.64
2023-03-26T10:58:29.544Z,7.76
2023-03-26T11:01:36.005Z,7.31
2023-03-26T11:04:25.651Z,7.58
2023-03-26T11:07:04.976Z,7.23
2023-03-26T11:09:40.868Z,7.26
2023-03-26T11:12:25.639Z,7.53
2023-03-26T11:14:54.078Z,7.69
2023-03-26T11:17:48.548Z,7.35
2023-03-26T11:20:18.321Z,7.15
2023-03-26T11:23:23.758Z,7.48
2023-03-26T11:25:57.838Z,7.32
2023-03-26T11:29:03.567Z,7.22
2023-03-26T11:31:43.753Z,7.36
2023-03-26T11:34:18.948Z,7.55
2023-03-26T11:36:50.283Z,7.64
2023-03-26T11:39:29.732Z,7.90
2023-03-26T11:42:06.287Z,7.96
2023-03-26T11:44:51.420Z,7.94
2023-03-26T11:47:29.725Z,8.04
2023-03-26T11:49:59.399Z,8.18
2023-03-26T11:52:27.001Z,8.27
2023-03-26T11:54:54.412Z,8.14
2023-03-26T11:57:25.974Z,8.23
2023-03-26T12:00:04.503Z,8.22
2023-03-26T12:02:38.900Z,8.23
2023-03-26T12:05:25.127Z,8.25
2023-03-26T12:07:59.072Z,8.19
2023-03-26T12:10:25.854Z,8.25
2023-03-26T12:12:56.385Z,8.15
2023-03-26T12:15:24.484Z,7.95
2023-03-26T12:17:56.174Z,8.06
2023-03-26T12:20:25.804Z,8.23
2023-03-26T12:22:59.399Z,8.19
2023-03-26T12:25:30.237Z,8.15
2023-03-26T12:28:13.886Z,8.14
2023-03-26T12:30:42.703Z,8.32
2023-03-26T12:33:28.576Z,8.44
2023-03-26T12:35:58.399Z,8.55
2023-03-26T12:38:33.446Z,8.46
2023-03-26T12:43:40.323Z,8.49
2023-03-26T12:44:48.417Z,8.49
2023-03-26T12:47:57.562Z,8.42
2023-03-26T12:50:14.668Z,8.20
2023-03-26T12:52:56.449Z,8.35
2023-03-26T12:55:52.311Z,8.41
2023-03-26T12:58:58.857Z,8.36
2023-03-26T13:01:33.439Z,8.27
2023-03-26T13:04:25.311Z,8.24
2023-03-26T13:07:02.108Z,7.94
2023-03-26T13:09:35.165Z,8.32
2023-03-26T13:12:07.544Z,8.22
2023-03-26T13:14:45.916Z,8.38
2023-03-26T13:17:31.112Z,8.15
2023-03-26T13:20:12.934Z,8.02
2023-03-26T13:22:56.575Z,8.09
2023-03-26T13:25:28.943Z,7.98
2023-03-26T13:28:06.999Z,8.24
2023-03-26T13:30:42.132Z,8.35
2023-03-26T13:33:20.984Z,8.42
2023-03-26T13:36:21.727Z,8.44
2023-03-26T13:39:42.513Z,8.08
2023-03-26T13:42:26.799Z,8.15
2023-03-26T13:45:05.669Z,8.46
2023-03-26T13:47:39.528Z,8.52
2023-03-26T13:50:29.554Z,8.30
2023-03-26T13:53:00.219Z,8.44
2023-03-26T13:55:38.306Z,8.54
2023-03-26T13:58:14.587Z,8.68
2023-03-26T14:01:00.370Z,8.64
2023-03-26T14:03:43.089Z,8.72
2023-03-26T14:06:34.758Z,8.64
2023-03-26T14:09:10.681Z,8.89
2023-03-26T14:11:56.782Z,8.95
2023-03-26T14:14:49.103Z,8.91
2023-03-26T14:17:15.832Z,8.96
2023-03-26T14:20:17.895Z,9.09
2023-03-26T14:23:09.441Z,8.67
2023-03-26T14:26:10.559Z,8.95
2023-03-26T14:28:55.336Z,8.92
2023-03-26T14:31:39.165Z,8.94
2023-03-26T14:34:14.845Z,8.86
2023-03-26T14:36:51.637Z,9.01
2023-03-26T14:39:37.158Z,8.67
2023-03-26T14:42:23.489Z,8.77
2023-03-26T14:45:11.612Z,8.90
2023-03-26T14:47:46.495Z,8.73
2023-03-26T14:50:48.331Z,8.32
2023-03-26T14:53:36.737Z,8.53
2023-03-26T14:56:14.377Z,8.56
2023-03-26T14:58:51.197Z,8.65
2023-03-26T15:01:22.952Z,8.76
2023-03-26T15:04:17.920Z,8.68
2023-03-26T15:07:03.287Z,8.78
2023-03-26T15:10:07.609Z,8.67
2023-03-26T15:13:16.069Z,8.57
2023-03-26T15:15:42.786Z,8.18
2023-03-26T15:18:15.564Z,8.21
2023-03-26T15:21:13.042Z,8.27
2023-03-26T15:24:01.638Z,7.59
2023-03-26T15:26:52.942Z,7.87
2023-03-26T15:29:53.392Z,7.64
2023-03-26T15:33:07.663Z,8.01
2023-03-26T15:35:59.082Z,8.37
2023-03-26T15:38:57.375Z,8.39
2023-03-26T15:41:26.856Z,8.18
2023-03-26T15:44:24.650Z,8.21
2023-03-26T15:46:56.903Z,8.45
2023-03-26T15:49:48.950Z,8.57
2023-03-26T15:52:33.253Z,8.76
2023-03-26T15:55:27.735Z,8.82
2023-03-26T15:57:58.036Z,8.75
2023-03-26T16:00:29.143Z,8.83
2023-03-26T16:03:11.204Z,8.70
2023-03-26T16:05:50.392Z,8.62
2023-03-26T16:08:38.894Z,8.62
2023-03-26T16:11:12.706Z,8.61
2023-03-26T16:13:41.480Z,8.64
2023-03-26T16:16:22.839Z,8.53
2023-03-26T16:19:32.694Z,8.56
2023-03-26T16:22:10.457Z,8.52
2023-03-26T16:24:41.211Z,8.39
2023-03-26T16:27:13.722Z,8.26
2023-03-26T16:30:00.670Z,8.25
2023-03-26T16:32:29.933Z,8.06
2023-03-26T16:35:22.866Z,8.26
2023-03-26T16:38:10.657Z,8.35
2023-03-26T16:40:56.268Z,8.26
2023-03-26T16:43:31.735Z,8.27
2023-03-26T16:46:22.516Z,8.19
2023-03-26T16:49:10.723Z,8.26
2023-03-26T16:51:49.167Z,8.28
2023-03-26T16:54:50.204Z,8.36
2023-03-26T16:57:26.117Z,8.23
2023-03-26T17:00:24.543Z,8.31
2023-03-26T17:03:03.706Z,8.32
2023-03-26T17:05:37.405Z,8.20
2023-03-26T17:08:36.736Z,8.12
2023-03-26T17:11:04.197Z,7.76
2023-03-26T17:14:06.325Z,7.08
2023-03-26T17:16:34.450Z,6.89
2023-03-26T17:19:19.641Z,6.79
2023-03-26T17:22:03.839Z,6.52
2023-03-26T17:24:49.497Z,6.15
2023-03-26T17:27:19.437Z,6.56
2023-03-26T17:30:10.783Z,5.98
2023-03-26T17:32:55.564Z,6.33
2023-03-26T17:35:41.146Z,6.77
2023-03-26T17:38:28.116Z,6.97
2023-03-26T17:40:59.769Z,6.53
2023-03-26T17:43:39.022Z,6.55
2023-03-26T17:46:19.546Z,6.83
2023-03-26T17:48:50.357Z,6.38
2023-03-26T17:51:43.353Z,6.57
2023-03-26T17:54:24.676Z,6.59
2023-03-26T17:56:56.434Z,6.36
2023-03-26T17:59:27.312Z,6.47
2023-03-26T18:01:57.718Z,6.52
2023-03-26T18:04:39.248Z,6.48
2023-03-26T18:07:14.318Z,6.43
2023-03-26T18:09:53.673Z,6.57
2023-03-26T18:12:38.203Z,6.38
2023-03-26T18:15:25.928Z,6.26
2023-03-26T18:18:01.759Z,6.27
2023-03-26T18:20:29.753Z,6.14
2023-03-26T18:22:56.618Z,6.12
2023-03-26T18:25:35.210Z,6.17
2023-03-26T18:28:02.483Z,6.29
2023-03-26T18:30:29.409Z,5.99
2023-03-26T18:33:12.186Z,6.24
2023-03-26T18:35:51.981Z,6.48
2023-03-26T18:38:35.825Z,6.10
2023-03-26T18:41:06.544Z,5.85
2023-03-26T18:43:43.809Z,5.63
2023-03-26T18:46:14.091Z,5.75
2023-03-26T20:18:17.582Z,5.72
2023-03-26T20:20:45.165Z,5.50
2023-03-26T20:23:23.977Z,5.67
2023-03-26T20:25:54.033Z,5.67
2023-03-26T20:28:21.182Z,5.26
2023-03-26T20:30:48.751Z,5.38
2023-03-26T20:33:19.427Z,5.24
2023-03-26T20:35:47.264Z,5.14
2023-03-26T20:38:13.938Z,5.32
2023-03-26T20:40:44.959Z,5.38
2023-03-26T20:43:13.608Z,5.05
2023-03-26T20:45:50.841Z,5.15
2023-03-26T20:48:20.536Z,5.32
2023-03-26T20:50:51.001Z,5.33
2023-03-26T20:53:19.079Z,5.13
2023-03-26T20:55:46.717Z,5.13
2023-03-26T20:58:15.101Z,5.26
2023-03-26T21:00:44.966Z,5.25
2023-03-26T21:03:14.308Z,5.44
2023-03-26T21:05:42.819Z,5.57
2023-03-26T21:08:16.736Z,5.60
2023-03-26T21:10:43.781Z,5.63
2023-03-26T21:13:40.959Z,5.66
2023-03-26T21:16:09.387Z,5.40
2023-03-26T21:18:36.852Z,5.46
2023-03-26T21:21:26.842Z,5.49
2023-03-26T21:24:03.218Z,5.26
2023-03-26T21:26:31.961Z,5.45
2023-03-26T21:28:59.373Z,5.26
2023-03-26T21:31:28.489Z,4.71
2023-03-26T21:33:55.321Z,5.07
2023-03-26T21:36:25.004Z,4.99
2023-03-26T21:38:54.698Z,5.12
2023-03-26T21:41:24.146Z,5.00
2023-03-26T21:43:51.476Z,4.97
2023-03-26T21:46:19.831Z,5.11
2023-03-26T21:48:55.471Z,5.01
2023-03-26T21:51:22.235Z,4.85
2023-03-26T21:53:51.411Z,5.08
2023-03-26T21:56:47.231Z,5.25
2023-03-26T21:59:19.808Z,5.00
2023-03-26T22:02:11.763Z,4.91
2023-03-26T22:04:58.690Z,4.86
2023-03-26T22:07:27.892Z,5.19
2023-03-26T22:09:54.655Z,4.96
2023-03-26T22:12:21.364Z,4.89
2023-03-26T22:14:48.348Z,5.13
2023-03-26T22:17:19.358Z,5.11
2023-03-26T22:19:48.873Z,4.96
2023-03-26T22:22:15.510Z,5.05
2023-03-26T22:24:44.518Z,5.13
2023-03-26T22:27:13.060Z,5.22
2023-03-26T22:29:45.286Z,5.02
2023-03-26T22:32:12.117Z,5.16
2023-03-26T22:34:38.859Z,4.96
2023-03-26T22:37:08.235Z,4.96
2023-03-26T22:39:37.918Z,4.74
2023-03-26T22:42:05.074Z,4.94
2023-03-26T22:44:32.067Z,4.90
2023-03-26T22:46:58.888Z,5.23
2023-03-26T22:49:27.597Z,5.29
2023-03-26T22:51:54.217Z,5.18
2023-03-26T22:54:20.928Z,5.37
2023-03-26T22:56:47.592Z,5.37
2023-03-26T22:59:14.469Z,5.37
2023-03-26T23:01:45.714Z,5.19
2023-03-26T23:04:13.112Z,5.37
2023-03-26T23:06:58.595Z,5.02
2023-03-26T23:09:25.327Z,5.31
2023-03-26T23:11:59.714Z,5.30
2023-03-26T23:14:26.581Z,5.44
2023-03-26T23:16:57.362Z,5.36
2023-03-26T23:19:26.223Z,5.15
2023-03-26T23:21:52.841Z,5.10
2023-03-26T23:24:19.820Z,5.21
2023-03-26T23:29:15.870Z,5.21
2023-03-26T23:31:42.515Z,4.84
2023-03-26T23:34:09.099Z,5.17
2023-03-26T23:36:36.396Z,5.24
2023-03-26T23:39:04.831Z,5.25
2023-03-26T23:41:31.473Z,5.24
2023-03-26T23:43:58.086Z,5.03
2023-03-26T23:46:30.315Z,5.19
2023-03-26T23:49:00.102Z,4.98
2023-03-26T23:51:36.078Z,4.98
2023-03-26T23:54:03.144Z,5.05
2023-03-26T23:56:30.030Z,4.94
2023-03-26T23:58:56.854Z,4.81
